createdAt,value
2023-03-06T00:00:01.754Z,100401.28
2023-03-06T00:00:39.294Z,100401.28
2023-03-06T00:02:28.186Z,100419.19
2023-03-06T00:04:54.567Z,100419.38
2023-03-06T00:05:39.332Z,100419.38
2023-03-06T00:07:20.951Z,100451.78
2023-03-06T00:09:47.295Z,100426.84
2023-03-06T00:10:39.309Z,100426.84
2023-03-06T00:12:13.701Z,100408.16
2023-03-06T00:14:40.098Z,100354.56
2023-03-06T00:15:39.335Z,100354.56
2023-03-06T00:17:06.554Z,100407.34
2023-03-06T00:19:32.930Z,100315.22
2023-03-06T00:20:39.312Z,100315.22
2023-03-06T00:21:59.320Z,100350.97
2023-03-06T00:24:25.678Z,100287.19
2023-03-06T00:25:39.315Z,100287.19
2023-03-06T00:26:52.132Z,100344.94
2023-03-06T00:29:18.675Z,100251.41
2023-03-06T00:30:39.321Z,100251.41
2023-03-06T00:31:47.779Z,100418.94
2023-03-06T00:34:14.929Z,100320.03
2023-03-06T00:35:39.399Z,100320.03
2023-03-06T00:36:41.834Z,100394.03
2023-03-06T00:39:08.274Z,100393.91
2023-03-06T00:40:39.346Z,100393.91
2023-03-06T00:41:34.671Z,100398.19
2023-03-06T00:44:01.057Z,100300.16
2023-03-06T00:45:39.353Z,100300.16
2023-03-06T00:46:27.487Z,100329.81
2023-03-06T00:48:53.888Z,100355.41
2023-03-06T00:50:39.354Z,100355.41
2023-03-06T00:51:21.586Z,100321.38
2023-03-06T00:53:48.517Z,100283.91
2023-03-06T00:55:39.306Z,100283.91
2023-03-06T00:56:14.922Z,100369.91
2023-03-06T00:58:41.603Z,100352.69
2023-03-06T01:00:39.384Z,100352.69
2023-03-06T01:01:08.197Z,100298.34
2023-03-06T01:03:34.604Z,100277.13
2023-03-06T01:05:39.315Z,100277.13
2023-03-06T01:06:00.995Z,100269.34
2023-03-06T01:08:27.410Z,100332.53
2023-03-06T01:10:39.321Z,100332.53
2023-03-06T01:10:56.209Z,100364.94
2023-03-06T01:13:22.708Z,100205.03
2023-03-06T01:15:39.362Z,100205.03
2023-03-06T01:15:49.050Z,100366.84
2023-03-06T01:18:15.608Z,100336.88
2023-03-06T01:20:39.292Z,100336.88
2023-03-06T01:20:42.023Z,100311.38
2023-03-06T01:23:08.385Z,100304.50
2023-03-06T01:25:34.783Z,100318.91
2023-03-06T01:25:39.330Z,100318.91
2023-03-06T01:28:01.174Z,100347.72
2023-03-06T01:30:27.572Z,100280.56
2023-03-06T01:30:39.381Z,100280.56
2023-03-06T01:32:53.998Z,100309.13
2023-03-06T01:35:20.386Z,100214.84
2023-03-06T01:35:39.392Z,100214.84
2023-03-06T01:37:46.748Z,100244.38
2023-03-06T01:40:13.517Z,100240.63
2023-03-06T01:40:39.324Z,100240.63
2023-03-06T01:42:40.356Z,100335.56
2023-03-06T01:45:26.906Z,100330.28
2023-03-06T01:45:39.345Z,100330.28
2023-03-06T01:47:53.237Z,100286.00
2023-03-06T01:50:19.789Z,100199.22
2023-03-06T01:50:39.314Z,100199.22
2023-03-06T01:52:52.548Z,100128.69
2023-03-06T01:55:22.985Z,100202.59
2023-03-06T01:55:39.441Z,100202.59
2023-03-06T01:57:57.690Z,100304.75
2023-03-06T02:00:27.291Z,100314.00
2023-03-06T02:00:39.326Z,100314.00
2023-03-06T02:02:57.811Z,100284.31
2023-03-06T02:05:24.299Z,100264.69
2023-03-06T02:05:39.369Z,100264.69
2023-03-06T02:07:51.782Z,100286.09
2023-03-06T02:10:20.087Z,100243.50
2023-03-06T02:10:39.358Z,100243.50
2023-03-06T02:12:49.211Z,100299.56
2023-03-06T02:15:18.558Z,100302.91
2023-03-06T02:15:39.346Z,100302.91
2023-03-06T02:17:46.655Z,100234.94
2023-03-06T02:20:22.251Z,100302.03
2023-03-06T02:20:39.345Z,100302.03
2023-03-06T02:22:57.580Z,100292.47
2023-03-06T02:25:39.305Z,100289.84
2023-03-06T02:25:39.453Z,100289.84
2023-03-06T02:28:09.218Z,100280.59
2023-03-06T02:30:36.211Z,100128.34
2023-03-06T02:30:39.360Z,100128.34
2023-03-06T02:33:03.559Z,100286.44
2023-03-06T02:35:33.089Z,100234.78
2023-03-06T02:35:39.372Z,100234.78
2023-03-06T02:38:04.665Z,100223.75
2023-03-06T02:40:31.764Z,100197.25
2023-03-06T02:40:39.324Z,100197.25
2023-03-06T02:42:58.889Z,100280.50
2023-03-06T02:45:38.854Z,100279.53
2023-03-06T02:45:39.374Z,100279.53
2023-03-06T02:48:05.918Z,100260.88
2023-03-06T02:50:32.539Z,100215.16
2023-03-06T02:50:39.328Z,100215.16
2023-03-06T02:52:59.003Z,100234.66
2023-03-06T02:55:25.689Z,100247.28
2023-03-06T02:55:39.370Z,100247.28
2023-03-06T02:57:52.085Z,100278.69
2023-03-06T03:00:19.298Z,100162.09
2023-03-06T03:00:40.174Z,100162.09
2023-03-06T03:02:45.754Z,100259.88
2023-03-06T03:05:12.095Z,100272.56
2023-03-06T03:05:39.350Z,100272.56
2023-03-06T03:07:38.572Z,100224.13
2023-03-06T03:10:05.310Z,100243.47
2023-03-06T03:10:39.366Z,100243.47
2023-03-06T03:12:32.235Z,100232.63
2023-03-06T03:14:58.884Z,100269.03
2023-03-06T03:15:39.377Z,100269.03
2023-03-06T03:17:25.286Z,100158.69
2023-03-06T03:19:51.821Z,100270.91
2023-03-06T03:20:39.343Z,100270.91
2023-03-06T03:22:18.743Z,100276.16
2023-03-06T03:24:45.497Z,100245.47
2023-03-06T03:25:39.347Z,100245.47
2023-03-06T03:27:12.259Z,100227.69
2023-03-06T03:29:38.649Z,100268.34
2023-03-06T03:30:39.355Z,100268.34
2023-03-06T03:32:05.515Z,100037.03
2023-03-06T03:34:31.941Z,100201.91
2023-03-06T03:35:39.394Z,100201.91
2023-03-06T03:36:58.339Z,100209.44
2023-03-06T03:39:24.797Z,100231.50
2023-03-06T03:40:39.400Z,100231.50
2023-03-06T03:41:51.131Z,100258.78
2023-03-06T03:44:17.502Z,100238.28
2023-03-06T03:45:39.357Z,100238.28
2023-03-06T03:46:44.055Z,100240.13
2023-03-06T03:49:10.753Z,100231.31
2023-03-06T03:50:39.352Z,100231.31
2023-03-06T03:51:37.180Z,100217.66
2023-03-06T03:54:05.971Z,100248.31
2023-03-06T03:55:39.362Z,100248.31
2023-03-06T03:56:32.903Z,100093.44
2023-03-06T03:58:59.855Z,100237.03
2023-03-06T04:00:39.402Z,100237.03
2023-03-06T04:01:26.371Z,100220.97
2023-03-06T04:03:52.771Z,100174.91
2023-03-06T04:05:39.338Z,100174.91
2023-03-06T04:06:19.544Z,100139.16
2023-03-06T04:08:46.000Z,100217.31
2023-03-06T04:10:39.406Z,100217.31
2023-03-06T04:11:12.455Z,100167.22
2023-03-06T04:13:38.870Z,100149.19
2023-03-06T04:15:39.358Z,100149.19
2023-03-06T04:16:05.729Z,100206.94
2023-03-06T04:18:32.159Z,100206.09
2023-03-06T04:20:39.375Z,100206.09
2023-03-06T04:20:58.632Z,100147.59
2023-03-06T04:23:25.355Z,100098.13
2023-03-06T04:25:39.349Z,100098.13
2023-03-06T04:25:51.920Z,100128.63
2023-03-06T04:28:18.312Z,100141.50
2023-03-06T04:30:39.345Z,100141.50
2023-03-06T04:30:44.760Z,100169.50
2023-03-06T04:33:11.334Z,100169.50
2023-03-06T04:35:38.025Z,100189.88
2023-03-06T04:35:39.408Z,100189.88
2023-03-06T04:38:05.200Z,100186.38
2023-03-06T04:40:33.989Z,100185.44
2023-03-06T04:40:39.345Z,100185.44
2023-03-06T04:43:01.266Z,100181.97
2023-03-06T04:45:29.897Z,100182.78
2023-03-06T04:45:39.393Z,100182.78
2023-03-06T04:47:56.630Z,100166.66
2023-03-06T04:50:24.867Z,100186.06
2023-03-06T04:50:39.395Z,100186.06
2023-03-06T04:52:51.884Z,100153.06
2023-03-06T04:55:18.816Z,100099.72
2023-03-06T04:55:39.441Z,100099.72
2023-03-06T04:57:47.050Z,100091.78
2023-03-06T05:00:22.074Z,100090.06
2023-03-06T05:00:39.381Z,100090.06
2023-03-06T05:02:49.396Z,100178.47
2023-03-06T05:05:17.473Z,100042.47
2023-03-06T05:05:39.346Z,100042.47
2023-03-06T05:07:44.333Z,100067.91
2023-03-06T05:10:13.988Z,100189.13
2023-03-06T05:10:39.374Z,100189.13
2023-03-06T05:12:40.432Z,99934.06
2023-03-06T05:15:07.960Z,100180.19
2023-03-06T05:15:39.376Z,100180.19
2023-03-06T05:17:34.512Z,100176.88
2023-03-06T05:20:00.963Z,100149.63
2023-03-06T05:20:39.380Z,100149.63
2023-03-06T05:22:29.707Z,100146.13
2023-03-06T05:24:56.119Z,100099.28
2023-03-06T05:25:39.361Z,100099.28
2023-03-06T05:27:22.586Z,100046.81
2023-03-06T05:29:49.070Z,100178.59
2023-03-06T05:30:39.349Z,100178.59
2023-03-06T05:32:16.913Z,100089.34
2023-03-06T05:34:43.326Z,100177.75
2023-03-06T05:35:39.396Z,100177.75
2023-03-06T05:37:09.706Z,100187.22
2023-03-06T05:39:36.027Z,100057.19
2023-03-06T05:40:39.351Z,100057.19
2023-03-06T05:42:02.422Z,100105.56
2023-03-06T05:44:33.300Z,100180.34
2023-03-06T05:45:39.491Z,100180.34
2023-03-06T05:47:00.076Z,100183.91
2023-03-06T05:49:27.116Z,100185.56
2023-03-06T05:50:39.376Z,100185.56
2023-03-06T05:51:54.133Z,100160.78
2023-03-06T05:54:21.147Z,100155.75
2023-03-06T05:55:39.398Z,100155.75
2023-03-06T05:56:47.490Z,100031.72
2023-03-06T05:59:13.921Z,100148.88
2023-03-06T06:00:39.365Z,100148.88
2023-03-06T06:01:40.318Z,100176.88
2023-03-06T06:04:06.667Z,100132.63
2023-03-06T06:05:39.386Z,100132.63
2023-03-06T06:06:33.017Z,100155.47
2023-03-06T06:08:59.382Z,100181.03
2023-03-06T06:10:39.362Z,100181.03
2023-03-06T06:11:25.753Z,100125.78
2023-03-06T06:13:52.142Z,100128.19
2023-03-06T06:15:39.407Z,100128.19
2023-03-06T06:16:22.036Z,100140.78
2023-03-06T06:18:48.478Z,100139.41
2023-03-06T06:20:39.374Z,100139.41
2023-03-06T06:21:15.044Z,100072.22
2023-03-06T06:23:41.602Z,100091.66
2023-03-06T06:25:39.368Z,100091.66
2023-03-06T06:26:10.006Z,100095.06
2023-03-06T06:28:36.742Z,100112.94
2023-03-06T06:30:39.363Z,100112.94
2023-03-06T06:31:10.434Z,100114.69
2023-03-06T06:33:36.839Z,100106.22
2023-03-06T06:35:39.401Z,100106.22
2023-03-06T06:36:03.445Z,100153.81
2023-03-06T06:38:29.887Z,100073.69
2023-03-06T06:40:39.352Z,100073.69
2023-03-06T06:41:30.619Z,100098.59
2023-03-06T06:43:42.631Z,100168.94
2023-03-06T06:45:39.368Z,100168.94
2023-03-06T06:46:36.458Z,100003.34
2023-03-06T06:48:55.472Z,100019.53
2023-03-06T06:50:39.385Z,100019.53
2023-03-06T06:51:23.003Z,100082.38
2023-03-06T06:53:53.254Z,100148.69
2023-03-06T06:55:39.364Z,100148.69
2023-03-06T06:56:19.625Z,100059.75
2023-03-06T06:58:46.086Z,99985.63
2023-03-06T07:00:39.374Z,99985.63
2023-03-06T07:01:13.361Z,100151.53
2023-03-06T07:03:40.717Z,100172.78
2023-03-06T07:05:39.397Z,100172.78
2023-03-06T07:06:07.628Z,100157.63
2023-03-06T07:08:34.202Z,100080.09
2023-03-06T07:10:39.411Z,100080.09
2023-03-06T07:11:09.839Z,100171.03
2023-03-06T07:13:36.481Z,100072.53
2023-03-06T07:15:39.442Z,100072.53
2023-03-06T07:16:02.900Z,100178.38
2023-03-06T07:18:29.552Z,100116.31
2023-03-06T07:20:39.384Z,100116.31
2023-03-06T07:21:01.043Z,100132.94
2023-03-06T07:23:27.863Z,100071.59
2023-03-06T07:25:39.403Z,100071.59
2023-03-06T07:25:55.107Z,100178.53
2023-03-06T07:28:22.286Z,100178.66
2023-03-06T07:30:39.403Z,100178.66
2023-03-06T07:30:48.757Z,100109.84
2023-03-06T07:33:15.574Z,100133.44
2023-03-06T07:35:39.395Z,100133.44
2023-03-06T07:35:43.047Z,100011.91
2023-03-06T07:38:10.118Z,100166.91
2023-03-06T07:40:38.799Z,100151.91
2023-03-06T07:40:39.374Z,100151.91
2023-03-06T07:43:18.620Z,100160.03
2023-03-06T07:45:39.406Z,100160.03
2023-03-06T07:45:46.955Z,100044.75
2023-03-06T07:48:14.789Z,100165.72
2023-03-06T07:50:39.384Z,100165.72
2023-03-06T07:50:42.009Z,100091.72
2023-03-06T07:53:10.149Z,100142.25
2023-03-06T07:55:40.290Z,100152.47
2023-03-06T07:55:40.449Z,100152.47
2023-03-06T07:58:06.680Z,100074.28
2023-03-06T08:00:33.407Z,100170.31
2023-03-06T08:00:39.394Z,100170.31
2023-03-06T08:02:59.845Z,100170.44
2023-03-06T08:05:26.198Z,100162.72
2023-03-06T08:05:39.411Z,100162.72
2023-03-06T08:07:52.575Z,100096.34
2023-03-06T08:10:19.153Z,99942.00
2023-03-06T08:10:39.405Z,99942.00
2023-03-06T08:12:45.534Z,100088.13
2023-03-06T08:15:12.683Z,100097.31
2023-03-06T08:15:39.382Z,100097.31
2023-03-06T08:17:39.254Z,100109.31
2023-03-06T08:20:10.351Z,100084.25
2023-03-06T08:20:39.374Z,100084.25
2023-03-06T08:22:36.958Z,100074.56
2023-03-06T08:25:05.187Z,100173.53
2023-03-06T08:25:39.406Z,100173.53
2023-03-06T08:27:34.237Z,100171.09
2023-03-06T08:30:00.786Z,100084.69
2023-03-06T08:30:39.404Z,100084.69
2023-03-06T08:32:28.096Z,100164.81
2023-03-06T08:34:54.514Z,100154.91
2023-03-06T08:35:39.404Z,100154.91
2023-03-06T08:37:20.938Z,100153.75
2023-03-06T08:39:47.305Z,100140.94
2023-03-06T08:40:39.394Z,100140.94
2023-03-06T08:42:14.498Z,100042.22
2023-03-06T08:44:40.959Z,100140.25
2023-03-06T08:45:39.454Z,100140.25
2023-03-06T08:47:07.336Z,100145.25
2023-03-06T08:49:33.792Z,100096.78
2023-03-06T08:50:39.382Z,100096.78
2023-03-06T08:52:00.979Z,100039.81
2023-03-06T08:54:27.333Z,100107.91
2023-03-06T08:55:39.394Z,100107.91
2023-03-06T08:56:54.207Z,100089.56
2023-03-06T08:59:20.604Z,100145.47
2023-03-06T09:00:39.417Z,100145.47
2023-03-06T09:01:47.001Z,100116.88
2023-03-06T09:04:13.382Z,100136.59
2023-03-06T09:05:39.394Z,100136.59
2023-03-06T09:06:42.140Z,100102.63
2023-03-06T09:09:09.011Z,100068.06
2023-03-06T09:10:39.469Z,100068.06
2023-03-06T09:11:35.943Z,100156.09
2023-03-06T09:14:02.581Z,100149.50
2023-03-06T09:15:39.383Z,100149.50
2023-03-06T09:16:29.165Z,99966.38
2023-03-06T09:18:55.627Z,100146.00
2023-03-06T09:20:39.364Z,100146.00
2023-03-06T09:21:22.793Z,100136.53
2023-03-06T09:23:49.588Z,100105.47
2023-03-06T09:25:39.488Z,100105.47
2023-03-06T09:26:15.983Z,100137.75
2023-03-06T09:28:42.426Z,100115.50
2023-03-06T09:30:39.454Z,100115.50
2023-03-06T09:31:15.412Z,100123.75
2023-03-06T09:33:42.443Z,100114.41
2023-03-06T09:35:39.429Z,100114.41
2023-03-06T09:36:14.387Z,100112.41
2023-03-06T09:38:40.944Z,100102.16
2023-03-06T09:40:39.424Z,100102.16
2023-03-06T09:41:19.490Z,100114.47
2023-03-06T09:43:49.407Z,100119.31
2023-03-06T09:45:39.598Z,100119.31
2023-03-06T09:46:32.372Z,100106.53
2023-03-06T09:49:10.112Z,100107.94
2023-03-06T09:50:39.407Z,100107.94
2023-03-06T09:51:51.625Z,100037.00
2023-03-06T09:54:25.914Z,100088.09
2023-03-06T09:55:39.401Z,100088.09
2023-03-06T09:56:52.255Z,100088.97
2023-03-06T09:59:24.995Z,100083.84
2023-03-06T10:00:39.391Z,100083.84
2023-03-06T10:02:01.380Z,99891.91
2023-03-06T10:04:36.749Z,100083.91
2023-03-06T10:05:39.388Z,100083.91
2023-03-06T10:07:12.261Z,100079.59
2023-03-06T10:09:48.073Z,100082.38
2023-03-06T10:10:39.400Z,100082.38
2023-03-06T10:12:28.677Z,100076.22
2023-03-06T10:15:08.117Z,100077.63
2023-03-06T10:15:39.497Z,100077.63
2023-03-06T10:17:37.677Z,100011.59
2023-03-06T10:20:23.714Z,100073.47
2023-03-06T10:20:39.386Z,100073.47
2023-03-06T10:23:13.662Z,100037.16
2023-03-06T10:25:59.961Z,100052.34
2023-03-06T10:26:00.202Z,100052.34
2023-03-06T10:28:35.106Z,100104.34
2023-03-06T10:30:39.399Z,100104.34
2023-03-06T10:31:19.598Z,100072.38
2023-03-06T10:34:01.823Z,100137.28
2023-03-06T10:35:39.422Z,100137.28
2023-03-06T10:36:29.076Z,99996.78
2023-03-06T10:38:58.129Z,100100.13
2023-03-06T10:40:39.388Z,100100.13
2023-03-06T10:41:26.783Z,100053.53
2023-03-06T10:44:05.258Z,100147.03
2023-03-06T10:45:48.897Z,100147.03
2023-03-06T10:46:35.868Z,100149.59
2023-03-06T10:49:06.185Z,100096.97
2023-03-06T10:50:39.398Z,100096.97
2023-03-06T10:51:34.147Z,100153.75
2023-03-06T10:54:03.101Z,100165.41
2023-03-06T10:55:39.421Z,100165.41
2023-03-06T10:56:34.123Z,100166.28
2023-03-06T10:59:10.396Z,100122.03
2023-03-06T11:00:39.413Z,100122.03
2023-03-06T11:01:37.266Z,100140.78
2023-03-06T11:04:24.010Z,100135.38
2023-03-06T11:05:39.414Z,100135.38
2023-03-06T11:07:12.428Z,100155.97
2023-03-06T11:09:39.384Z,100090.38
2023-03-06T11:10:39.412Z,100090.38
2023-03-06T11:12:32.279Z,100144.06
2023-03-06T11:15:14.074Z,100168.50
2023-03-06T11:15:39.429Z,100168.50
2023-03-06T11:18:01.683Z,100153.31
2023-03-06T11:20:51.116Z,100158.22
2023-03-06T11:20:53.277Z,100158.22
2023-03-06T11:23:27.971Z,100103.63
2023-03-06T11:25:39.422Z,100103.63
2023-03-06T11:26:02.669Z,100136.56
2023-03-06T11:28:34.422Z,100050.03
2023-03-06T11:30:39.393Z,100050.03
2023-03-06T11:31:16.507Z,100109.19
2023-03-06T11:33:51.310Z,100116.19
2023-03-06T11:35:39.412Z,100116.19
2023-03-06T11:36:49.871Z,100104.47
2023-03-06T11:39:40.252Z,100108.50
2023-03-06T11:40:39.398Z,100108.50
2023-03-06T11:42:17.297Z,100069.53
2023-03-06T11:44:54.384Z,100044.69
2023-03-06T11:45:39.408Z,100044.69
2023-03-06T11:47:28.871Z,99977.69
2023-03-06T11:50:24.836Z,100110.78
2023-03-06T11:50:39.437Z,100110.78
2023-03-06T11:52:55.129Z,100107.38
2023-03-06T11:55:44.138Z,100083.72
2023-03-06T11:55:44.307Z,100083.72
2023-03-06T11:58:34.906Z,100132.09
2023-03-06T12:00:39.394Z,100132.09
2023-03-06T12:01:24.975Z,100113.47
2023-03-06T12:04:11.674Z,100110.13
2023-03-06T12:05:39.501Z,100110.13
2023-03-06T12:07:01.067Z,100108.72
2023-03-06T12:09:34.202Z,100111.63
2023-03-06T12:10:39.418Z,100111.63
2023-03-06T12:12:03.437Z,100113.47
2023-03-06T12:14:47.135Z,100115.38
2023-03-06T12:15:39.418Z,100115.38
2023-03-06T12:17:24.427Z,100051.84
2023-03-06T12:20:11.536Z,100053.38
2023-03-06T12:20:39.430Z,100053.38
2023-03-06T12:23:16.209Z,100114.34
2023-03-06T12:25:39.417Z,100114.34
2023-03-06T12:25:47.316Z,100118.94
2023-03-06T12:28:29.018Z,100114.00
2023-03-06T12:30:39.421Z,100114.00
2023-03-06T12:31:14.207Z,100119.19
2023-03-06T12:34:02.197Z,100054.44
2023-03-06T12:35:39.443Z,100054.44
2023-03-06T12:36:53.480Z,100036.13
2023-03-06T12:39:46.804Z,100067.25
2023-03-06T12:40:39.442Z,100067.25
2023-03-06T12:42:36.154Z,100119.50
2023-03-06T12:45:24.272Z,100120.03
2023-03-06T12:45:39.482Z,100120.03
2023-03-06T12:47:56.445Z,100078.53
2023-03-06T12:50:36.867Z,100116.31
2023-03-06T12:50:39.405Z,100116.31
2023-03-06T12:53:07.773Z,100005.25
2023-03-06T12:55:44.808Z,100058.66
2023-03-06T12:55:44.982Z,100058.66
2023-03-06T12:58:29.914Z,100141.66
2023-03-06T13:00:39.417Z,100141.66
2023-03-06T13:01:11.349Z,100114.00
2023-03-06T13:03:57.502Z,100034.81
2023-03-06T13:05:39.497Z,100034.81
2023-03-06T13:06:41.870Z,100111.16
2023-03-06T13:09:18.848Z,100118.91
2023-03-06T13:10:39.433Z,100118.91
2023-03-06T13:12:00.288Z,100102.66
2023-03-06T13:14:54.673Z,100049.25
2023-03-06T13:15:39.447Z,100049.25
2023-03-06T13:17:24.364Z,100101.31
2023-03-06T13:20:12.972Z,100084.75
2023-03-06T13:20:39.433Z,100084.75
2023-03-06T13:22:43.747Z,100045.03
2023-03-06T13:25:19.004Z,100062.97
2023-03-06T13:25:40.162Z,100062.97
2023-03-06T13:27:54.275Z,100047.81
2023-03-06T13:30:39.025Z,100054.00
2023-03-06T13:30:39.506Z,100054.00
2023-03-06T13:33:24.103Z,100058.06
2023-03-06T13:35:39.462Z,100058.06
2023-03-06T13:35:54.741Z,100037.84
2023-03-06T13:38:31.750Z,100022.34
2023-03-06T13:40:39.415Z,100022.34
2023-03-06T13:41:22.742Z,100007.38
2023-03-06T13:43:55.064Z,99982.63
2023-03-06T13:45:39.434Z,99982.63
2023-03-06T13:46:35.306Z,100020.25
2023-03-06T13:49:07.540Z,100039.16
2023-03-06T13:50:39.416Z,100039.16
2023-03-06T13:51:41.885Z,100039.25
2023-03-06T13:54:24.717Z,100031.50
2023-03-06T13:55:39.454Z,100031.50
2023-03-06T13:57:18.650Z,100057.94
2023-03-06T14:00:08.209Z,99874.59
2023-03-06T14:00:39.439Z,99874.59
2023-03-06T14:03:05.983Z,100072.38
2023-03-06T14:05:45.432Z,100000.59
2023-03-06T14:05:45.548Z,100000.59
2023-03-06T14:08:18.958Z,99942.84
2023-03-06T14:10:39.465Z,99942.84
2023-03-06T14:10:47.941Z,99998.53
2023-03-06T14:13:18.481Z,100046.13
2023-03-06T14:15:39.525Z,100046.13
2023-03-06T14:15:49.349Z,100065.22
2023-03-06T14:18:20.278Z,100077.50
2023-03-06T14:20:39.429Z,100077.50
2023-03-06T14:20:56.152Z,100075.66
2023-03-06T14:23:30.099Z,100079.13
2023-03-06T14:25:39.417Z,100079.13
2023-03-06T14:25:59.191Z,99705.56
2023-03-06T14:28:30.797Z,100028.94
2023-03-06T14:30:39.442Z,100028.94
2023-03-06T14:30:59.070Z,100087.56
2023-03-06T14:33:32.109Z,100076.22
2023-03-06T14:35:39.451Z,100076.22
2023-03-06T14:36:02.516Z,100075.47
2023-03-06T14:38:34.498Z,100017.81
2023-03-06T14:40:39.439Z,100017.81
2023-03-06T14:41:02.053Z,100015.94
2023-03-06T14:43:28.715Z,100025.09
2023-03-06T14:45:39.421Z,100025.09
2023-03-06T14:45:57.996Z,100009.78
2023-03-06T14:48:36.038Z,100070.25
2023-03-06T14:50:41.041Z,100070.25
2023-03-06T14:51:02.793Z,100023.44
2023-03-06T14:53:32.076Z,100043.16
2023-03-06T14:55:39.437Z,100043.16
2023-03-06T14:56:01.019Z,99969.69
2023-03-06T14:58:48.193Z,99943.81
2023-03-06T15:00:39.474Z,99943.81
2023-03-06T15:01:15.456Z,100034.75
2023-03-06T15:03:51.981Z,99978.06
2023-03-06T15:05:39.446Z,99978.06
2023-03-06T15:06:31.245Z,100010.59
2023-03-06T15:09:20.815Z,100000.47
2023-03-06T15:10:39.426Z,100000.47
2023-03-06T15:11:56.816Z,100031.19
2023-03-06T15:14:31.528Z,100029.16
2023-03-06T15:15:39.460Z,100029.16
2023-03-06T15:17:17.571Z,99948.34
2023-03-06T15:19:46.860Z,100011.09
2023-03-06T15:20:39.464Z,100011.09
2023-03-06T15:22:26.532Z,99944.22
2023-03-06T15:24:53.493Z,99992.31
2023-03-06T15:25:39.456Z,99992.31
2023-03-06T15:27:30.149Z,99970.94
2023-03-06T15:30:28.331Z,100024.13
2023-03-06T15:30:39.444Z,100024.13
2023-03-06T15:33:11.413Z,100013.84
2023-03-06T15:35:38.556Z,99995.59
2023-03-06T15:35:39.484Z,99995.59
2023-03-06T15:38:23.912Z,99926.53
2023-03-06T15:40:39.443Z,99926.53
2023-03-06T15:40:58.698Z,99989.13
2023-03-06T15:43:25.212Z,99920.94
2023-03-06T15:45:39.534Z,99920.94
2023-03-06T15:45:58.061Z,99963.59
2023-03-06T15:48:24.462Z,100008.41
2023-03-06T15:50:39.497Z,100008.41
2023-03-06T15:50:51.023Z,100004.00
2023-03-06T15:53:17.357Z,99962.81
2023-03-06T15:55:39.426Z,99962.81
2023-03-06T15:55:43.719Z,99979.44
2023-03-06T15:58:16.102Z,99901.59
2023-03-06T16:00:39.451Z,99901.59
2023-03-06T16:00:42.830Z,99841.47
2023-03-06T16:03:11.481Z,99947.34
2023-03-06T16:05:37.934Z,99933.09
2023-03-06T16:05:39.438Z,99933.09
2023-03-06T16:08:05.220Z,99960.47
2023-03-06T16:10:35.829Z,99970.22
2023-03-06T16:10:39.468Z,99970.22
2023-03-06T16:13:12.553Z,99870.47
2023-03-06T16:15:45.304Z,99958.47
2023-03-06T16:15:45.439Z,99958.47
2023-03-06T16:18:12.831Z,99899.81
2023-03-06T16:20:40.133Z,99785.88
2023-03-06T16:20:40.370Z,99785.88
2023-03-06T16:23:10.234Z,99951.22
2023-03-06T16:25:38.870Z,99914.72
2023-03-06T16:25:39.505Z,99914.72
2023-03-06T16:28:11.012Z,99909.94
2023-03-06T16:30:38.406Z,99882.19
2023-03-06T16:30:39.575Z,99882.19
2023-03-06T16:33:05.335Z,99955.69
2023-03-06T16:35:31.862Z,99953.28
2023-03-06T16:35:39.523Z,99953.28
2023-03-06T16:37:59.774Z,99930.78
2023-03-06T16:40:40.987Z,99954.53
2023-03-06T16:40:41.415Z,99954.53
2023-03-06T16:43:09.008Z,99935.88
2023-03-06T16:45:39.489Z,99924.34
2023-03-06T16:45:39.643Z,99924.34
2023-03-06T16:48:06.531Z,99928.59
2023-03-06T16:50:37.533Z,99955.06
2023-03-06T16:50:39.469Z,99955.06
2023-03-06T16:53:04.628Z,99890.91
2023-03-06T16:55:31.058Z,99928.31
2023-03-06T16:55:39.517Z,99928.31
2023-03-06T16:57:57.385Z,99864.66
2023-03-06T17:00:24.687Z,99940.03
2023-03-06T17:00:39.444Z,99940.03
2023-03-06T17:02:52.270Z,99932.75
2023-03-06T17:05:19.371Z,99887.03
2023-03-06T17:05:39.469Z,99887.03
2023-03-06T17:07:46.183Z,99949.16
2023-03-06T17:10:15.581Z,99937.38
2023-03-06T17:10:39.457Z,99937.38
2023-03-06T17:12:42.844Z,99899.50
2023-03-06T17:15:10.833Z,99895.53
2023-03-06T17:15:39.515Z,99895.53
2023-03-06T17:17:37.570Z,99840.88
2023-03-06T17:20:05.251Z,99875.75
2023-03-06T17:20:39.461Z,99875.75
2023-03-06T17:22:36.298Z,99920.66
2023-03-06T17:25:06.645Z,99900.41
2023-03-06T17:25:39.456Z,99900.41
2023-03-06T17:27:34.144Z,99844.59
2023-03-06T17:30:01.155Z,99925.22
2023-03-06T17:30:39.502Z,99925.22
2023-03-06T17:32:28.114Z,99925.09
2023-03-06T17:34:54.669Z,99916.06
2023-03-06T17:35:39.487Z,99916.06
2023-03-06T17:37:21.260Z,99917.66
2023-03-06T17:39:47.746Z,99927.78
2023-03-06T17:40:39.448Z,99927.78
2023-03-06T17:42:16.859Z,99914.69
2023-03-06T17:44:43.198Z,99930.03
2023-03-06T17:45:39.441Z,99930.03
2023-03-06T17:47:09.650Z,99891.91
2023-03-06T17:49:36.028Z,99834.16
2023-03-06T17:50:39.470Z,99834.16
2023-03-06T17:52:05.058Z,99872.09
2023-03-06T17:54:33.147Z,99838.41
2023-03-06T17:55:39.465Z,99838.41
2023-03-06T17:57:05.138Z,99912.75
2023-03-06T17:59:34.102Z,99904.97
2023-03-06T18:00:39.441Z,99904.97
2023-03-06T18:02:01.370Z,99891.69
2023-03-06T18:04:28.390Z,99812.81
2023-03-06T18:05:39.448Z,99812.81
2023-03-06T18:06:54.866Z,99909.25
2023-03-06T18:09:21.247Z,99838.63
2023-03-06T18:10:39.463Z,99838.63
2023-03-06T18:11:47.625Z,99863.88
2023-03-06T18:14:14.215Z,99880.66
2023-03-06T18:15:39.448Z,99880.66
2023-03-06T18:16:40.818Z,99867.66
2023-03-06T18:19:07.232Z,99814.47
2023-03-06T18:20:39.449Z,99814.47
2023-03-06T18:21:33.564Z,99841.25
2023-03-06T18:24:00.000Z,99814.34
2023-03-06T18:25:39.437Z,99814.34
2023-03-06T18:26:28.676Z,99851.94
2023-03-06T18:28:57.395Z,99841.53
2023-03-06T18:30:39.492Z,99841.53
2023-03-06T18:31:27.510Z,99607.06
2023-03-06T18:33:56.614Z,99753.72
2023-03-06T18:35:39.507Z,99753.72
2023-03-06T18:36:24.849Z,99789.16
2023-03-06T18:38:51.875Z,99801.56
2023-03-06T18:40:39.470Z,99801.56
2023-03-06T18:41:20.469Z,99788.72
2023-03-06T18:43:57.823Z,99781.72
2023-03-06T18:45:39.488Z,99781.72
2023-03-06T18:46:26.023Z,99746.94
2023-03-06T18:48:52.435Z,99756.56
2023-03-06T18:50:39.492Z,99756.56
2023-03-06T18:51:20.134Z,99767.84
2023-03-06T18:53:46.633Z,99732.72
2023-03-06T18:55:39.455Z,99732.72
2023-03-06T18:56:16.637Z,99684.59
2023-03-06T18:58:43.873Z,99734.38
2023-03-06T19:00:39.502Z,99734.38
2023-03-06T19:01:11.315Z,99694.66
2023-03-06T19:03:37.788Z,99654.03
2023-03-06T19:05:39.471Z,99654.03
2023-03-06T19:06:09.511Z,99707.91
2023-03-06T19:08:37.116Z,99706.00
2023-03-06T19:10:39.461Z,99706.00
2023-03-06T19:11:05.788Z,99714.47